sensor_id;sensor_type;location;lat;lon;timestamp;temperature;humidity
56478;DHT22;42382;53.210;5.772;2022-09-09T00:04:16;15.30;91.40
56478;DHT22;42382;53.210;5.772;2022-09-09T00:09:18;15.20;91.50
56478;DHT22;42382;53.210;5.772;2022-09-09T00:11:58;15.30;91.60
56478;DHT22;42382;53.210;5.772;2022-09-09T00:20:03;15.20;91.90
56478;DHT22;42382;53.210;5.772;2022-09-09T00:22:32;15.20;92.00
56478;DHT22;42382;53.210;5.772;2022-09-09T00:25:13;15.20;92.00
56478;DHT22;42382;53.210;5.772;2022-09-09T00:27:46;15.20;92.10
56478;DHT22;42382;53.210;5.772;2022-09-09T00:30:19;15.20;92.10
56478;DHT22;42382;53.210;5.772;2022-09-09T00:32:53;15.20;92.00
56478;DHT22;42382;53.210;5.772;2022-09-09T00:35:36;15.20;92.10
56478;DHT22;42382;53.210;5.772;2022-09-09T00:38:12;15.20;92.10
56478;DHT22;42382;53.210;5.772;2022-09-09T00:41:05;15.20;92.00
56478;DHT22;42382;53.210;5.772;2022-09-09T00:43:36;15.20;91.90
56478;DHT22;42382;53.210;5.772;2022-09-09T00:46:32;15.10;91.90
56478;DHT22;42382;53.210;5.772;2022-09-09T00:57:35;15.00;91.50
56478;DHT22;42382;53.210;5.772;2022-09-09T01:02:53;15.00;91.40
56478;DHT22;42382;53.210;5.772;2022-09-09T01:08:01;15.00;91.90
56478;DHT22;42382;53.210;5.772;2022-09-09T01:10:50;14.90;91.90
56478;DHT22;42382;53.210;5.772;2022-09-09T01:13:25;15.00;91.80
56478;DHT22;42382;53.210;5.772;2022-09-09T01:15:51;14.90;92.00
56478;DHT22;42382;53.210;5.772;2022-09-09T01:18:21;14.90;92.00
56478;DHT22;42382;53.210;5.772;2022-09-09T01:28:49;14.90;92.10
56478;DHT22;42382;53.210;5.772;2022-09-09T01:31:22;14.90;92.20
56478;DHT22;42382;53.210;5.772;2022-09-09T01:33:48;14.90;92.30
56478;DHT22;42382;53.210;5.772;2022-09-09T01:36:38;14.90;92.30
56478;DHT22;42382;53.210;5.772;2022-09-09T01:39:06;14.90;92.40
56478;DHT22;42382;53.210;5.772;2022-09-09T01:41:32;14.90;92.40
56478;DHT22;42382;53.210;5.772;2022-09-09T01:43:58;14.90;92.20
56478;DHT22;42382;53.210;5.772;2022-09-09T01:46:24;14.80;92.20
56478;DHT22;42382;53.210;5.772;2022-09-09T01:48:51;14.90;92.20
56478;DHT22;42382;53.210;5.772;2022-09-09T01:51:18;14.90;92.20
56478;DHT22;42382;53.210;5.772;2022-09-09T01:53:44;14.90;92.20
56478;DHT22;42382;53.210;5.772;2022-09-09T01:56:22;14.90;92.20
56478;DHT22;42382;53.210;5.772;2022-09-09T02:10:12;14.80;92.30
56478;DHT22;42382;53.210;5.772;2022-09-09T02:12:43;14.80;92.20
56478;DHT22;42382;53.210;5.772;2022-09-09T02:15:21;14.80;92.20
56478;DHT22;42382;53.210;5.772;2022-09-09T02:17:50;14.80;92.30
56478;DHT22;42382;53.210;5.772;2022-09-09T02:20:18;14.80;92.30
56478;DHT22;42382;53.210;5.772;2022-09-09T02:22:47;14.70;92.20
56478;DHT22;42382;53.210;5.772;2022-09-09T02:25:17;14.80;92.20
56478;DHT22;42382;53.210;5.772;2022-09-09T02:27:44;14.70;92.30
56478;DHT22;42382;53.210;5.772;2022-09-09T02:30:11;14.70;92.20
56478;DHT22;42382;53.210;5.772;2022-09-09T02:32:38;14.70;92.20
56478;DHT22;42382;53.210;5.772;2022-09-09T02:35:17;14.70;92.30
56478;DHT22;42382;53.210;5.772;2022-09-09T02:37:45;14.60;92.30
56478;DHT22;42382;53.210;5.772;2022-09-09T02:40:13;14.60;92.30
56478;DHT22;42382;53.210;5.772;2022-09-09T02:42:45;14.70;92.30
56478;DHT22;42382;53.210;5.772;2022-09-09T02:45:13;14.60;92.40
56478;DHT22;42382;53.210;5.772;2022-09-09T02:48:03;14.60;92.40
56478;DHT22;42382;53.210;5.772;2022-09-09T02:50:34;14.70;92.40
56478;DHT22;42382;53.210;5.772;2022-09-09T02:53:17;14.60;92.50
56478;DHT22;42382;53.210;5.772;2022-09-09T02:55:47;14.60;92.60
56478;DHT22;42382;53.210;5.772;2022-09-09T02:58:16;14.60;92.60
56478;DHT22;42382;53.210;5.772;2022-09-09T03:00:49;14.60;92.50
56478;DHT22;42382;53.210;5.772;2022-09-09T03:03:16;14.60;92.60
56478;DHT22;42382;53.210;5.772;2022-09-09T03:05:43;14.60;92.50
56478;DHT22;42382;53.210;5.772;2022-09-09T03:08:09;14.60;92.60
56478;DHT22;42382;53.210;5.772;2022-09-09T03:10:35;14.60;92.60
56478;DHT22;42382;53.210;5.772;2022-09-09T03:13:02;14.60;92.70
56478;DHT22;42382;53.210;5.772;2022-09-09T03:15:29;14.60;92.70
56478;DHT22;42382;53.210;5.772;2022-09-09T03:17:57;14.60;92.60
56478;DHT22;42382;53.210;5.772;2022-09-09T03:20:24;14.60;92.70
56478;DHT22;42382;53.210;5.772;2022-09-09T03:22:54;14.60;92.70
56478;DHT22;42382;53.210;5.772;2022-09-09T03:25:21;14.60;92.70
56478;DHT22;42382;53.210;5.772;2022-09-09T03:27:49;14.60;92.80
56478;DHT22;42382;53.210;5.772;2022-09-09T03:30:15;14.60;92.80
56478;DHT22;42382;53.210;5.772;2022-09-09T03:32:41;14.50;92.70
56478;DHT22;42382;53.210;5.772;2022-09-09T03:35:07;14.50;92.80
56478;DHT22;42382;53.210;5.772;2022-09-09T03:37:33;14.50;92.90
56478;DHT22;42382;53.210;5.772;2022-09-09T03:39:58;14.50;92.80
56478;DHT22;42382;53.210;5.772;2022-09-09T03:42:25;14.50;92.90
56478;DHT22;42382;53.210;5.772;2022-09-09T03:44:51;14.50;92.90
56478;DHT22;42382;53.210;5.772;2022-09-09T03:47:18;14.50;92.90
56478;DHT22;42382;53.210;5.772;2022-09-09T03:49:44;14.50;93.10
56478;DHT22;42382;53.210;5.772;2022-09-09T03:52:10;14.50;93.00
56478;DHT22;42382;53.210;5.772;2022-09-09T03:54:36;14.50;93.00
56478;DHT22;42382;53.210;5.772;2022-09-09T03:57:02;14.50;93.10
56478;DHT22;42382;53.210;5.772;2022-09-09T03:59:27;14.40;93.00
56478;DHT22;42382;53.210;5.772;2022-09-09T04:01:53;14.50;93.00
56478;DHT22;42382;53.210;5.772;2022-09-09T04:04:20;14.50;93.10
56478;DHT22;42382;53.210;5.772;2022-09-09T04:06:46;14.50;93.10
56478;DHT22;42382;53.210;5.772;2022-09-09T04:09:13;14.50;93.10
56478;DHT22;42382;53.210;5.772;2022-09-09T04:11:39;14.40;93.10
56478;DHT22;42382;53.210;5.772;2022-09-09T04:14:04;14.50;93.10
56478;DHT22;42382;53.210;5.772;2022-09-09T04:16:32;14.50;93.10
56478;DHT22;42382;53.210;5.772;2022-09-09T04:18:58;14.40;93.10
56478;DHT22;42382;53.210;5.772;2022-09-09T04:21:25;14.50;93.20
56478;DHT22;42382;53.210;5.772;2022-09-09T04:23:50;14.40;93.20
56478;DHT22;42382;53.210;5.772;2022-09-09T04:26:17;14.50;93.30
56478;DHT22;42382;53.210;5.772;2022-09-09T04:28:42;14.40;93.10
56478;DHT22;42382;53.210;5.772;2022-09-09T04:31:17;14.50;93.30
56478;DHT22;42382;53.210;5.772;2022-09-09T04:33:47;14.40;93.30
56478;DHT22;42382;53.210;5.772;2022-09-09T04:36:12;14.50;93.30
56478;DHT22;42382;53.210;5.772;2022-09-09T04:38:38;14.40;93.30
56478;DHT22;42382;53.210;5.772;2022-09-09T04:41:05;14.50;93.30
56478;DHT22;42382;53.210;5.772;2022-09-09T04:43:31;14.50;93.40
56478;DHT22;42382;53.210;5.772;2022-09-09T04:45:56;14.40;93.40
56478;DHT22;42382;53.210;5.772;2022-09-09T04:48:24;14.40;93.40
56478;DHT22;42382;53.210;5.772;2022-09-09T04:51:02;14.40;93.40
56478;DHT22;42382;53.210;5.772;2022-09-09T04:53:29;14.50;93.50
56478;DHT22;42382;53.210;5.772;2022-09-09T04:56:03;14.50;93.50
56478;DHT22;42382;53.210;5.772;2022-09-09T04:58:28;14.50;93.50
56478;DHT22;42382;53.210;5.772;2022-09-09T05:00:54;14.60;93.40
56478;DHT22;42382;53.210;5.772;2022-09-09T05:03:20;14.50;93.30
56478;DHT22;42382;53.210;5.772;2022-09-09T05:05:45;14.50;93.30
56478;DHT22;42382;53.210;5.772;2022-09-09T05:08:11;14.50;93.30
56478;DHT22;42382;53.210;5.772;2022-09-09T05:10:38;14.60;93.20
56478;DHT22;42382;53.210;5.772;2022-09-09T05:13:04;14.60;93.30
56478;DHT22;42382;53.210;5.772;2022-09-09T05:15:30;14.60;93.30
56478;DHT22;42382;53.210;5.772;2022-09-09T05:17:58;14.60;93.20
56478;DHT22;42382;53.210;5.772;2022-09-09T05:20:26;14.70;93.30
56478;DHT22;42382;53.210;5.772;2022-09-09T05:22:55;14.60;93.30
56478;DHT22;42382;53.210;5.772;2022-09-09T05:25:22;14.60;93.40
56478;DHT22;42382;53.210;5.772;2022-09-09T05:27:48;14.60;93.30
56478;DHT22;42382;53.210;5.772;2022-09-09T05:30:14;14.70;93.40
56478;DHT22;42382;53.210;5.772;2022-09-09T05:32:40;14.70;93.30
56478;DHT22;42382;53.210;5.772;2022-09-09T05:35:06;14.60;93.40
56478;DHT22;42382;53.210;5.772;2022-09-09T05:37:32;14.70;93.30
56478;DHT22;42382;53.210;5.772;2022-09-09T05:39:57;14.80;93.40
56478;DHT22;42382;53.210;5.772;2022-09-09T05:42:23;14.80;93.30
56478;DHT22;42382;53.210;5.772;2022-09-09T05:44:49;14.70;93.30
56478;DHT22;42382;53.210;5.772;2022-09-09T05:47:16;14.80;93.20
56478;DHT22;42382;53.210;5.772;2022-09-09T05:49:42;14.80;93.20
56478;DHT22;42382;53.210;5.772;2022-09-09T05:52:08;14.80;93.20
56478;DHT22;42382;53.210;5.772;2022-09-09T05:54:35;14.80;93.20
56478;DHT22;42382;53.210;5.772;2022-09-09T05:57:00;14.80;93.10
56478;DHT22;42382;53.210;5.772;2022-09-09T05:59:26;14.80;93.10
56478;DHT22;42382;53.210;5.772;2022-09-09T06:01:51;14.80;93.10
56478;DHT22;42382;53.210;5.772;2022-09-09T06:04:17;14.90;93.10
56478;DHT22;42382;53.210;5.772;2022-09-09T06:06:43;14.90;93.10
56478;DHT22;42382;53.210;5.772;2022-09-09T06:09:09;14.90;93.10
56478;DHT22;42382;53.210;5.772;2022-09-09T06:11:37;14.90;93.20
56478;DHT22;42382;53.210;5.772;2022-09-09T06:14:03;14.90;93.20
56478;DHT22;42382;53.210;5.772;2022-09-09T06:16:30;15.00;93.10
56478;DHT22;42382;53.210;5.772;2022-09-09T06:18:58;15.00;93.10
56478;DHT22;42382;53.210;5.772;2022-09-09T06:21:29;15.00;93.10
56478;DHT22;42382;53.210;5.772;2022-09-09T06:23:56;15.10;93.00
56478;DHT22;42382;53.210;5.772;2022-09-09T06:26:26;15.20;93.10
56478;DHT22;42382;53.210;5.772;2022-09-09T06:28:54;15.20;93.20
56478;DHT22;42382;53.210;5.772;2022-09-09T06:31:23;15.30;93.00
56478;DHT22;42382;53.210;5.772;2022-09-09T06:33:52;15.30;92.60
56478;DHT22;42382;53.210;5.772;2022-09-09T06:36:25;15.30;92.80
56478;DHT22;42382;53.210;5.772;2022-09-09T06:38:51;15.30;92.50
56478;DHT22;42382;53.210;5.772;2022-09-09T06:41:18;15.30;92.30
56478;DHT22;42382;53.210;5.772;2022-09-09T06:43:45;15.40;92.30
56478;DHT22;42382;53.210;5.772;2022-09-09T06:46:16;15.40;92.40
56478;DHT22;42382;53.210;5.772;2022-09-09T06:48:43;15.40;92.30
56478;DHT22;42382;53.210;5.772;2022-09-09T06:51:11;15.40;92.30
56478;DHT22;42382;53.210;5.772;2022-09-09T06:53:38;15.50;92.30
56478;DHT22;42382;53.210;5.772;2022-09-09T06:58:45;15.50;92.20
56478;DHT22;42382;53.210;5.772;2022-09-09T07:01:13;15.60;92.10
56478;DHT22;42382;53.210;5.772;2022-09-09T07:03:39;15.50;91.80
56478;DHT22;42382;53.210;5.772;2022-09-09T07:06:06;15.60;92.00
56478;DHT22;42382;53.210;5.772;2022-09-09T07:08:33;15.60;91.90
56478;DHT22;42382;53.210;5.772;2022-09-09T07:11:04;15.60;91.90
56478;DHT22;42382;53.210;5.772;2022-09-09T07:13:33;15.70;91.50
56478;DHT22;42382;53.210;5.772;2022-09-09T07:16:07;15.70;91.60
56478;DHT22;42382;53.210;5.772;2022-09-09T07:18:34;15.70;91.50
56478;DHT22;42382;53.210;5.772;2022-09-09T07:21:00;15.70;91.30
56478;DHT22;42382;53.210;5.772;2022-09-09T07:23:27;15.70;91.30
56478;DHT22;42382;53.210;5.772;2022-09-09T07:25:53;15.80;91.20
56478;DHT22;42382;53.210;5.772;2022-09-09T07:28:22;15.80;91.20
56478;DHT22;42382;53.210;5.772;2022-09-09T07:30:56;15.80;91.20
56478;DHT22;42382;53.210;5.772;2022-09-09T07:33:22;15.90;91.00
56478;DHT22;42382;53.210;5.772;2022-09-09T07:35:49;16.00;90.90
56478;DHT22;42382;53.210;5.772;2022-09-09T07:38:15;16.00;90.90
56478;DHT22;42382;53.210;5.772;2022-09-09T07:40:40;16.10;90.90
56478;DHT22;42382;53.210;5.772;2022-09-09T07:43:06;16.20;90.70
56478;DHT22;42382;53.210;5.772;2022-09-09T07:45:33;16.30;90.60
56478;DHT22;42382;53.210;5.772;2022-09-09T07:47:59;16.40;90.60
56478;DHT22;42382;53.210;5.772;2022-09-09T07:50:25;16.50;90.60
56478;DHT22;42382;53.210;5.772;2022-09-09T07:52:52;16.60;90.40
56478;DHT22;42382;53.210;5.772;2022-09-09T07:55:22;16.70;90.20
56478;DHT22;42382;53.210;5.772;2022-09-09T07:57:51;16.80;89.90
56478;DHT22;42382;53.210;5.772;2022-09-09T08:00:17;16.80;89.50
56478;DHT22;42382;53.210;5.772;2022-09-09T08:02:44;16.70;89.40
56478;DHT22;42382;53.210;5.772;2022-09-09T08:05:10;16.80;89.30
56478;DHT22;42382;53.210;5.772;2022-09-09T08:07:35;16.80;89.20
56478;DHT22;42382;53.210;5.772;2022-09-09T08:10:02;17.00;89.20
56478;DHT22;42382;53.210;5.772;2022-09-09T08:12:28;17.10;89.00
56478;DHT22;42382;53.210;5.772;2022-09-09T08:14:54;17.50;89.10
56478;DHT22;42382;53.210;5.772;2022-09-09T08:17:20;17.80;88.50
56478;DHT22;42382;53.210;5.772;2022-09-09T08:19:45;17.90;87.80
56478;DHT22;42382;53.210;5.772;2022-09-09T08:22:11;18.10;87.70
56478;DHT22;42382;53.210;5.772;2022-09-09T08:24:36;18.30;86.70
56478;DHT22;42382;53.210;5.772;2022-09-09T08:27:02;18.30;86.70
56478;DHT22;42382;53.210;5.772;2022-09-09T08:29:28;18.20;86.00
56478;DHT22;42382;53.210;5.772;2022-09-09T08:31:58;18.10;86.20
56478;DHT22;42382;53.210;5.772;2022-09-09T08:34:25;18.20;86.20
56478;DHT22;42382;53.210;5.772;2022-09-09T08:36:53;18.30;85.80
56478;DHT22;42382;53.210;5.772;2022-09-09T08:39:21;18.20;85.80
56478;DHT22;42382;53.210;5.772;2022-09-09T08:50:27;18.50;84.40
56478;DHT22;42382;53.210;5.772;2022-09-09T08:58:32;19.00;84.50
56478;DHT22;42382;53.210;5.772;2022-09-09T09:06:54;19.10;83.50
56478;DHT22;42382;53.210;5.772;2022-09-09T09:09:38;19.40;82.00
56478;DHT22;42382;53.210;5.772;2022-09-09T09:12:40;19.70;82.20
56478;DHT22;42382;53.210;5.772;2022-09-09T09:15:18;19.70;80.70
56478;DHT22;42382;53.210;5.772;2022-09-09T09:17:44;19.50;81.10
56478;DHT22;42382;53.210;5.772;2022-09-09T09:20:15;19.40;81.20
56478;DHT22;42382;53.210;5.772;2022-09-09T09:22:49;19.20;81.50
56478;DHT22;42382;53.210;5.772;2022-09-09T09:25:23;19.00;81.20
56478;DHT22;42382;53.210;5.772;2022-09-09T09:28:00;18.90;81.90
56478;DHT22;42382;53.210;5.772;2022-09-09T09:30:34;18.70;81.70
56478;DHT22;42382;53.210;5.772;2022-09-09T09:33:24;18.60;81.70
56478;DHT22;42382;53.210;5.772;2022-09-09T09:35:52;18.60;82.10
56478;DHT22;42382;53.210;5.772;2022-09-09T09:38:26;18.70;82.70
56478;DHT22;42382;53.210;5.772;2022-09-09T09:40:55;18.80;82.70
56478;DHT22;42382;53.210;5.772;2022-09-09T09:43:36;18.70;82.10
56478;DHT22;42382;53.210;5.772;2022-09-09T09:46:05;18.70;82.10
56478;DHT22;42382;53.210;5.772;2022-09-09T09:48:42;18.60;81.70
56478;DHT22;42382;53.210;5.772;2022-09-09T09:51:10;18.60;82.20
56478;DHT22;42382;53.210;5.772;2022-09-09T09:53:39;18.70;81.80
56478;DHT22;42382;53.210;5.772;2022-09-09T09:56:14;18.80;81.70
56478;DHT22;42382;53.210;5.772;2022-09-09T10:01:22;19.10;81.00
56478;DHT22;42382;53.210;5.772;2022-09-09T10:03:54;19.10;80.50
56478;DHT22;42382;53.210;5.772;2022-09-09T10:06:34;19.20;79.60
56478;DHT22;42382;53.210;5.772;2022-09-09T10:09:02;19.30;80.00
56478;DHT22;42382;53.210;5.772;2022-09-09T10:14:20;19.60;79.40
56478;DHT22;42382;53.210;5.772;2022-09-09T10:19:36;19.70;79.40
56478;DHT22;42382;53.210;5.772;2022-09-09T10:33:37;20.30;77.50
56478;DHT22;42382;53.210;5.772;2022-09-09T10:36:26;20.40;75.60
56478;DHT22;42382;53.210;5.772;2022-09-09T10:39:08;20.30;73.90
56478;DHT22;42382;53.210;5.772;2022-09-09T10:41:57;20.10;74.60
56478;DHT22;42382;53.210;5.772;2022-09-09T10:49:59;20.10;74.90
56478;DHT22;42382;53.210;5.772;2022-09-09T10:55:16;20.30;75.00
56478;DHT22;42382;53.210;5.772;2022-09-09T10:57:48;20.90;74.80
56478;DHT22;42382;53.210;5.772;2022-09-09T11:00:30;21.40;71.60
56478;DHT22;42382;53.210;5.772;2022-09-09T11:03:00;21.40;71.90
56478;DHT22;42382;53.210;5.772;2022-09-09T11:05:28;21.30;72.20
56478;DHT22;42382;53.210;5.772;2022-09-09T11:07:59;21.60;71.80
56478;DHT22;42382;53.210;5.772;2022-09-09T11:13:31;22.00;68.40
56478;DHT22;42382;53.210;5.772;2022-09-09T11:16:04;21.70;67.30
56478;DHT22;42382;53.210;5.772;2022-09-09T11:18:39;21.40;69.00
56478;DHT22;42382;53.210;5.772;2022-09-09T11:21:32;21.30;68.60
56478;DHT22;42382;53.210;5.772;2022-09-09T11:24:03;21.10;69.50
56478;DHT22;42382;53.210;5.772;2022-09-09T11:26:38;21.00;70.30
56478;DHT22;42382;53.210;5.772;2022-09-09T11:37:47;21.90;68.60
56478;DHT22;42382;53.210;5.772;2022-09-09T11:40:26;22.10;68.10
56478;DHT22;42382;53.210;5.772;2022-09-09T11:43:05;22.30;67.40
56478;DHT22;42382;53.210;5.772;2022-09-09T11:45:35;22.20;66.90
56478;DHT22;42382;53.210;5.772;2022-09-09T11:48:03;22.30;68.10
56478;DHT22;42382;53.210;5.772;2022-09-09T11:50:32;22.20;66.60
56478;DHT22;42382;53.210;5.772;2022-09-09T11:53:18;22.10;67.70
56478;DHT22;42382;53.210;5.772;2022-09-09T11:55:46;22.10;67.30
56478;DHT22;42382;53.210;5.772;2022-09-09T12:00:48;21.70;67.90
56478;DHT22;42382;53.210;5.772;2022-09-09T12:03:34;21.60;67.70
56478;DHT22;42382;53.210;5.772;2022-09-09T12:06:28;21.70;67.50
56478;DHT22;42382;53.210;5.772;2022-09-09T12:12:32;21.40;67.40
56478;DHT22;42382;53.210;5.772;2022-09-09T12:14:59;21.40;68.20
56478;DHT22;42382;53.210;5.772;2022-09-09T12:17:28;21.30;68.10
56478;DHT22;42382;53.210;5.772;2022-09-09T12:20:03;21.00;68.60
56478;DHT22;42382;53.210;5.772;2022-09-09T12:22:53;20.90;69.00
56478;DHT22;42382;53.210;5.772;2022-09-09T12:25:46;20.80;69.50
56478;DHT22;42382;53.210;5.772;2022-09-09T12:33:40;20.30;71.40
56478;DHT22;42382;53.210;5.772;2022-09-09T12:36:17;20.40;71.10
56478;DHT22;42382;53.210;5.772;2022-09-09T12:38:45;20.40;71.30
56478;DHT22;42382;53.210;5.772;2022-09-09T12:41:29;20.40;71.60
56478;DHT22;42382;53.210;5.772;2022-09-09T12:44:09;20.30;71.90
56478;DHT22;42382;53.210;5.772;2022-09-09T12:46:43;20.30;72.50
56478;DHT22;42382;53.210;5.772;2022-09-09T12:49:30;20.40;72.40
56478;DHT22;42382;53.210;5.772;2022-09-09T12:52:02;20.40;72.70
56478;DHT22;42382;53.210;5.772;2022-09-09T12:54:28;20.60;73.00
56478;DHT22;42382;53.210;5.772;2022-09-09T12:56:54;20.80;72.20
56478;DHT22;42382;53.210;5.772;2022-09-09T12:59:25;20.90;71.60
56478;DHT22;42382;53.210;5.772;2022-09-09T13:01:56;21.10;71.00
56478;DHT22;42382;53.210;5.772;2022-09-09T13:04:22;21.20;70.20
56478;DHT22;42382;53.210;5.772;2022-09-09T13:06:48;21.20;69.50
56478;DHT22;42382;53.210;5.772;2022-09-09T13:09:15;21.30;69.50
56478;DHT22;42382;53.210;5.772;2022-09-09T13:11:52;21.40;69.80
56478;DHT22;42382;53.210;5.772;2022-09-09T13:14:29;21.30;69.70
56478;DHT22;42382;53.210;5.772;2022-09-09T13:17:02;21.30;69.10
56478;DHT22;42382;53.210;5.772;2022-09-09T13:19:36;21.30;69.70
56478;DHT22;42382;53.210;5.772;2022-09-09T13:22:14;21.20;69.60
56478;DHT22;42382;53.210;5.772;2022-09-09T13:24:44;21.10;69.90
56478;DHT22;42382;53.210;5.772;2022-09-09T13:27:34;21.00;70.80
56478;DHT22;42382;53.210;5.772;2022-09-09T13:30:00;20.90;71.20
56478;DHT22;42382;53.210;5.772;2022-09-09T13:32:27;20.90;72.40
56478;DHT22;42382;53.210;5.772;2022-09-09T13:34:55;21.00;72.80
56478;DHT22;42382;53.210;5.772;2022-09-09T13:37:38;21.10;71.60
56478;DHT22;42382;53.210;5.772;2022-09-09T13:40:12;20.90;71.00
56478;DHT22;42382;53.210;5.772;2022-09-09T13:42:42;20.90;71.20
56478;DHT22;42382;53.210;5.772;2022-09-09T13:45:19;20.70;70.80
56478;DHT22;42382;53.210;5.772;2022-09-09T13:47:48;20.50;70.80
56478;DHT22;42382;53.210;5.772;2022-09-09T13:50:23;20.40;72.00
56478;DHT22;42382;53.210;5.772;2022-09-09T13:52:53;20.30;73.20
56478;DHT22;42382;53.210;5.772;2022-09-09T13:55:21;20.30;74.70
56478;DHT22;42382;53.210;5.772;2022-09-09T14:00:24;20.30;76.20
56478;DHT22;42382;53.210;5.772;2022-09-09T14:02:51;20.30;76.60
56478;DHT22;42382;53.210;5.772;2022-09-09T14:05:18;20.30;76.70
56478;DHT22;42382;53.210;5.772;2022-09-09T14:07:44;20.40;76.20
56478;DHT22;42382;53.210;5.772;2022-09-09T14:10:11;20.60;76.30
56478;DHT22;42382;53.210;5.772;2022-09-09T14:12:37;20.70;75.70
56478;DHT22;42382;53.210;5.772;2022-09-09T14:15:04;20.80;75.70
56478;DHT22;42382;53.210;5.772;2022-09-09T14:17:30;21.00;75.00
56478;DHT22;42382;53.210;5.772;2022-09-09T14:19:56;21.10;73.50
56478;DHT22;42382;53.210;5.772;2022-09-09T14:22:23;21.10;73.10
56478;DHT22;42382;53.210;5.772;2022-09-09T14:24:49;21.20;72.50
56478;DHT22;42382;53.210;5.772;2022-09-09T14:27:14;21.20;72.00
56478;DHT22;42382;53.210;5.772;2022-09-09T14:29:40;21.30;71.40
56478;DHT22;42382;53.210;5.772;2022-09-09T14:32:06;21.50;70.50
56478;DHT22;42382;53.210;5.772;2022-09-09T14:34:31;21.50;70.10
56478;DHT22;42382;53.210;5.772;2022-09-09T14:36:58;21.40;70.50
56478;DHT22;42382;53.210;5.772;2022-09-09T14:39:23;21.30;70.80
56478;DHT22;42382;53.210;5.772;2022-09-09T14:41:49;21.30;70.60
56478;DHT22;42382;53.210;5.772;2022-09-09T14:44:15;21.20;70.70
56478;DHT22;42382;53.210;5.772;2022-09-09T14:46:41;21.10;70.50
56478;DHT22;42382;53.210;5.772;2022-09-09T14:49:08;20.90;70.40
56478;DHT22;42382;53.210;5.772;2022-09-09T14:51:36;20.80;71.30
56478;DHT22;42382;53.210;5.772;2022-09-09T14:54:02;20.70;71.90
56478;DHT22;42382;53.210;5.772;2022-09-09T14:56:30;20.60;72.20
56478;DHT22;42382;53.210;5.772;2022-09-09T14:58:58;20.50;72.90
56478;DHT22;42382;53.210;5.772;2022-09-09T15:01:24;20.40;73.00
56478;DHT22;42382;53.210;5.772;2022-09-09T15:04:00;20.30;73.00
56478;DHT22;42382;53.210;5.772;2022-09-09T15:06:28;20.10;72.90
56478;DHT22;42382;53.210;5.772;2022-09-09T15:08:55;19.90;74.30
56478;DHT22;42382;53.210;5.772;2022-09-09T15:11:24;19.50;75.90
56478;DHT22;42382;53.210;5.772;2022-09-09T15:13:51;19.30;76.50
56478;DHT22;42382;53.210;5.772;2022-09-09T15:16:19;19.20;77.80
56478;DHT22;42382;53.210;5.772;2022-09-09T15:18:46;19.10;78.70
56478;DHT22;42382;53.210;5.772;2022-09-09T15:21:20;19.10;79.30
56478;DHT22;42382;53.210;5.772;2022-09-09T15:23:46;19.10;79.80
56478;DHT22;42382;53.210;5.772;2022-09-09T15:26:13;19.10;80.20
56478;DHT22;42382;53.210;5.772;2022-09-09T15:28:40;19.10;80.60
56478;DHT22;42382;53.210;5.772;2022-09-09T15:31:13;19.30;81.10
56478;DHT22;42382;53.210;5.772;2022-09-09T15:33:49;19.30;81.40
56478;DHT22;42382;53.210;5.772;2022-09-09T15:36:23;19.40;81.40
56478;DHT22;42382;53.210;5.772;2022-09-09T15:38:49;19.40;81.40
56478;DHT22;42382;53.210;5.772;2022-09-09T15:41:16;19.30;81.60
56478;DHT22;42382;53.210;5.772;2022-09-09T15:43:47;19.20;81.80
56478;DHT22;42382;53.210;5.772;2022-09-09T15:48:52;19.00;82.20
56478;DHT22;42382;53.210;5.772;2022-09-09T15:51:17;18.90;82.60
56478;DHT22;42382;53.210;5.772;2022-09-09T15:53:44;18.90;82.70
56478;DHT22;42382;53.210;5.772;2022-09-09T15:56:10;18.70;82.80
56478;DHT22;42382;53.210;5.772;2022-09-09T15:58:36;18.70;82.90
56478;DHT22;42382;53.210;5.772;2022-09-09T16:01:11;18.70;83.40
56478;DHT22;42382;53.210;5.772;2022-09-09T16:03:41;18.70;83.70
56478;DHT22;42382;53.210;5.772;2022-09-09T16:06:08;18.80;83.80
56478;DHT22;42382;53.210;5.772;2022-09-09T16:08:36;18.80;83.80
56478;DHT22;42382;53.210;5.772;2022-09-09T16:11:13;18.80;83.70
56478;DHT22;42382;53.210;5.772;2022-09-09T16:13:43;18.80;83.60
56478;DHT22;42382;53.210;5.772;2022-09-09T16:16:13;18.70;83.50
56478;DHT22;42382;53.210;5.772;2022-09-09T16:18:44;18.70;83.80
56478;DHT22;42382;53.210;5.772;2022-09-09T16:21:15;18.60;84.00
56478;DHT22;42382;53.210;5.772;2022-09-09T16:23:41;18.60;84.10
56478;DHT22;42382;53.210;5.772;2022-09-09T16:26:10;18.60;84.10
56478;DHT22;42382;53.210;5.772;2022-09-09T16:28:36;18.60;84.10
56478;DHT22;42382;53.210;5.772;2022-09-09T16:31:05;18.50;84.20
56478;DHT22;42382;53.210;5.772;2022-09-09T16:33:31;18.50;84.20
56478;DHT22;42382;53.210;5.772;2022-09-09T16:35:57;18.40;84.30
56478;DHT22;42382;53.210;5.772;2022-09-09T16:38:22;18.40;84.30
56478;DHT22;42382;53.210;5.772;2022-09-09T16:40:48;18.40;84.70
56478;DHT22;42382;53.210;5.772;2022-09-09T16:43:15;18.30;84.70
56478;DHT22;42382;53.210;5.772;2022-09-09T16:45:45;18.30;84.40
56478;DHT22;42382;53.210;5.772;2022-09-09T16:48:11;18.30;84.30
56478;DHT22;42382;53.210;5.772;2022-09-09T16:50:37;18.20;84.10
56478;DHT22;42382;53.210;5.772;2022-09-09T16:53:04;18.10;84.00
56478;DHT22;42382;53.210;5.772;2022-09-09T16:55:40;18.20;84.00
56478;DHT22;42382;53.210;5.772;2022-09-09T16:58:07;18.20;84.00
56478;DHT22;42382;53.210;5.772;2022-09-09T17:00:34;18.20;84.00
56478;DHT22;42382;53.210;5.772;2022-09-09T17:03:00;18.30;84.20
56478;DHT22;42382;53.210;5.772;2022-09-09T17:05:25;18.30;84.40
56478;DHT22;42382;53.210;5.772;2022-09-09T17:07:51;18.30;84.50
56478;DHT22;42382;53.210;5.772;2022-09-09T17:10:17;18.30;84.50
56478;DHT22;42382;53.210;5.772;2022-09-09T17:12:43;18.30;84.60
56478;DHT22;42382;53.210;5.772;2022-09-09T17:15:09;18.20;84.60
56478;DHT22;42382;53.210;5.772;2022-09-09T17:17:35;18.00;84.60
56478;DHT22;42382;53.210;5.772;2022-09-09T17:20:01;17.90;85.00
56478;DHT22;42382;53.210;5.772;2022-09-09T17:22:27;17.80;85.40
56478;DHT22;42382;53.210;5.772;2022-09-09T17:24:54;17.70;85.70
56478;DHT22;42382;53.210;5.772;2022-09-09T17:27:20;17.70;86.10
56478;DHT22;42382;53.210;5.772;2022-09-09T17:29:46;17.70;86.30
56478;DHT22;42382;53.210;5.772;2022-09-09T17:32:12;17.70;86.50
56478;DHT22;42382;53.210;5.772;2022-09-09T17:34:37;17.80;86.50
56478;DHT22;42382;53.210;5.772;2022-09-09T17:37:04;17.80;86.60
56478;DHT22;42382;53.210;5.772;2022-09-09T17:39:31;17.80;86.50
56478;DHT22;42382;53.210;5.772;2022-09-09T17:41:57;17.70;86.60
56478;DHT22;42382;53.210;5.772;2022-09-09T17:44:23;17.70;86.70
56478;DHT22;42382;53.210;5.772;2022-09-09T17:46:48;17.80;86.80
56478;DHT22;42382;53.210;5.772;2022-09-09T17:49:16;17.70;86.90